sensor_id;sensor_type;location;lat;lon;timestamp;pressure;altitude;pressure_sealevel;temperature;humidity
1652;BME280;823;49.028;8.454;2022-11-15T00:04:19;100172.66;;;11.79;62.82
1652;BME280;823;49.028;8.454;2022-11-15T00:09:19;100159.84;;;11.75;62.88
1652;BME280;823;49.028;8.454;2022-11-15T00:14:19;100155.44;;;11.78;62.79
1652;BME280;823;49.028;8.454;2022-11-15T00:19:20;100157.19;;;11.77;63.18
1652;BME280;823;49.028;8.454;2022-11-15T00:24:21;100151.66;;;11.85;63.00
1652;BME280;823;49.028;8.454;2022-11-15T00:29:21;100154.13;;;11.88;63.09
1652;BME280;823;49.028;8.454;2022-11-15T00:34:21;100154.03;;;11.91;62.97
1652;BME280;823;49.028;8.454;2022-11-15T00:39:22;100159.22;;;11.91;62.87
1652;BME280;823;49.028;8.454;2022-11-15T00:44:22;100145.59;;;11.86;63.19
1652;BME280;823;49.028;8.454;2022-11-15T00:49:22;100143.19;;;11.81;63.12
1652;BME280;823;49.028;8.454;2022-11-15T00:54:23;100130.19;;;11.83;62.94
1652;BME280;823;49.028;8.454;2022-11-15T00:59:23;100135.28;;;11.84;63.00
1652;BME280;823;49.028;8.454;2022-11-15T01:04:24;100134.31;;;11.87;62.85
1652;BME280;823;49.028;8.454;2022-11-15T01:09:25;100129.91;;;11.89;62.79
1652;BME280;823;49.028;8.454;2022-11-15T01:14:25;100125.63;;;11.88;63.08
1652;BME280;823;49.028;8.454;2022-11-15T01:19:26;100117.66;;;11.92;63.21
1652;BME280;823;49.028;8.454;2022-11-15T01:24:26;100124.59;;;11.92;62.76
1652;BME280;823;49.028;8.454;2022-11-15T01:29:26;100121.94;;;11.93;62.96
1652;BME280;823;49.028;8.454;2022-11-15T01:34:27;100114.22;;;11.92;63.01
1652;BME280;823;49.028;8.454;2022-11-15T01:39:27;100109.91;;;11.92;62.83
1652;BME280;823;49.028;8.454;2022-11-15T01:49:33;100103.28;;;11.85;63.23
1652;BME280;823;49.028;8.454;2022-11-15T01:54:34;100096.34;;;11.86;63.50
1652;BME280;823;49.028;8.454;2022-11-15T01:59:37;100090.00;;;11.93;63.07
1652;BME280;823;49.028;8.454;2022-11-15T02:04:41;100073.38;;;11.99;63.12
1652;BME280;823;49.028;8.454;2022-11-15T02:09:43;100079.25;;;12.02;63.02
1652;BME280;823;49.028;8.454;2022-11-15T02:14:47;100068.59;;;12.08;63.01
1652;BME280;823;49.028;8.454;2022-11-15T02:36:10;100032.06;;;12.15;62.94
1652;BME280;823;49.028;8.454;2022-11-15T02:41:20;100028.69;;;12.13;62.84
1652;BME280;823;49.028;8.454;2022-11-15T02:46:47;100030.50;;;12.11;62.66
1652;BME280;823;49.028;8.454;2022-11-15T02:52:08;100028.06;;;12.07;62.68
1652;BME280;823;49.028;8.454;2022-11-15T02:57:15;100026.31;;;12.08;62.65
1652;BME280;823;49.028;8.454;2022-11-15T03:08:00;100008.81;;;12.13;62.95
1652;BME280;823;49.028;8.454;2022-11-15T03:13:07;100007.81;;;12.16;63.17
1652;BME280;823;49.028;8.454;2022-11-15T03:18:33;100005.00;;;12.20;62.98
1652;BME280;823;49.028;8.454;2022-11-15T03:23:38;100007.09;;;12.31;63.16
1652;BME280;823;49.028;8.454;2022-11-15T03:28:59;99996.44;;;12.37;62.91
1652;BME280;823;49.028;8.454;2022-11-15T03:34:02;99997.28;;;12.38;62.94
1652;BME280;823;49.028;8.454;2022-11-15T03:39:07;99996.16;;;12.43;62.95
1652;BME280;823;49.028;8.454;2022-11-15T03:49:30;99994.19;;;12.49;62.58
1652;BME280;823;49.028;8.454;2022-11-15T03:54:32;99987.03;;;12.35;63.15
1652;BME280;823;49.028;8.454;2022-11-15T03:59:33;99994.31;;;12.46;62.99
1652;BME280;823;49.028;8.454;2022-11-15T04:04:33;99990.28;;;12.40;63.08
1652;BME280;823;49.028;8.454;2022-11-15T04:09:33;99994.97;;;12.51;62.67
1652;BME280;823;49.028;8.454;2022-11-15T04:14:54;99990.53;;;12.53;63.01
1652;BME280;823;49.028;8.454;2022-11-15T04:20:17;99988.41;;;12.61;62.96
1652;BME280;823;49.028;8.454;2022-11-15T04:25:36;100000.47;;;12.62;62.94
1652;BME280;823;49.028;8.454;2022-11-15T04:30:37;99996.91;;;12.65;62.75
1652;BME280;823;49.028;8.454;2022-11-15T04:35:37;99997.78;;;12.64;62.68
1652;BME280;823;49.028;8.454;2022-11-15T04:40:38;99995.00;;;12.68;62.45
1652;BME280;823;49.028;8.454;2022-11-15T04:45:38;99986.44;;;12.66;62.72
1652;BME280;823;49.028;8.454;2022-11-15T04:50:38;99974.09;;;12.71;62.82
1652;BME280;823;49.028;8.454;2022-11-15T04:55:39;99977.28;;;12.76;62.64
1652;BME280;823;49.028;8.454;2022-11-15T05:00:39;99965.91;;;12.79;62.55
1652;BME280;823;49.028;8.454;2022-11-15T05:05:40;99971.81;;;12.83;62.56
1652;BME280;823;49.028;8.454;2022-11-15T05:10:40;99973.50;;;12.84;62.82
1652;BME280;823;49.028;8.454;2022-11-15T05:15:40;99971.66;;;12.86;62.22
1652;BME280;823;49.028;8.454;2022-11-15T05:20:41;99960.59;;;12.82;62.18
1652;BME280;823;49.028;8.454;2022-11-15T05:25:41;99967.53;;;12.82;62.31
1652;BME280;823;49.028;8.454;2022-11-15T05:30:41;99960.81;;;12.77;62.37
1652;BME280;823;49.028;8.454;2022-11-15T05:35:46;99956.41;;;12.80;62.32
1652;BME280;823;49.028;8.454;2022-11-15T05:40:49;99967.69;;;12.78;62.23
1652;BME280;823;49.028;8.454;2022-11-15T05:45:49;99965.25;;;12.75;61.99
1652;BME280;823;49.028;8.454;2022-11-15T05:50:50;99964.38;;;12.75;62.03
1652;BME280;823;49.028;8.454;2022-11-15T05:55:51;99955.16;;;12.69;61.95
1652;BME280;823;49.028;8.454;2022-11-15T06:00:51;99958.06;;;12.63;62.15
1652;BME280;823;49.028;8.454;2022-11-15T06:05:51;99969.50;;;12.59;62.04
1652;BME280;823;49.028;8.454;2022-11-15T06:10:52;99973.06;;;12.56;62.04
1652;BME280;823;49.028;8.454;2022-11-15T06:15:55;99962.28;;;12.47;61.63
1652;BME280;823;49.028;8.454;2022-11-15T06:20:59;99950.31;;;12.44;61.85
1652;BME280;823;49.028;8.454;2022-11-15T06:26:00;99958.44;;;12.36;62.35
1652;BME280;823;49.028;8.454;2022-11-15T06:31:03;99949.47;;;12.43;62.29
1652;BME280;823;49.028;8.454;2022-11-15T06:36:09;99944.28;;;12.43;62.38
1652;BME280;823;49.028;8.454;2022-11-15T06:41:10;99926.06;;;12.45;62.62
1652;BME280;823;49.028;8.454;2022-11-15T06:46:11;99920.63;;;12.50;62.70
1652;BME280;823;49.028;8.454;2022-11-15T06:51:11;99956.47;;;12.41;63.10
1652;BME280;823;49.028;8.454;2022-11-15T06:56:12;99952.97;;;12.42;63.57
1652;BME280;823;49.028;8.454;2022-11-15T07:01:12;99955.22;;;12.50;63.36
1652;BME280;823;49.028;8.454;2022-11-15T07:06:13;99953.84;;;12.60;63.23
1652;BME280;823;49.028;8.454;2022-11-15T07:11:13;99967.88;;;12.56;63.55
1652;BME280;823;49.028;8.454;2022-11-15T07:16:13;99962.19;;;12.67;63.42
1652;BME280;823;49.028;8.454;2022-11-15T07:21:14;99971.03;;;12.81;63.33
1652;BME280;823;49.028;8.454;2022-11-15T07:26:14;99972.44;;;12.88;63.00
1652;BME280;823;49.028;8.454;2022-11-15T07:31:14;99971.03;;;12.98;62.83
1652;BME280;823;49.028;8.454;2022-11-15T07:36:15;99960.56;;;13.00;63.06
1652;BME280;823;49.028;8.454;2022-11-15T07:41:15;99963.56;;;13.09;62.71
1652;BME280;823;49.028;8.454;2022-11-15T07:46:15;99973.81;;;13.13;62.89
1652;BME280;823;49.028;8.454;2022-11-15T07:51:16;99964.53;;;13.24;62.66
1652;BME280;823;49.028;8.454;2022-11-15T07:56:16;99965.97;;;13.30;62.72
1652;BME280;823;49.028;8.454;2022-11-15T08:01:17;99959.44;;;13.40;62.72
1652;BME280;823;49.028;8.454;2022-11-15T08:06:17;99960.88;;;13.46;62.88
1652;BME280;823;49.028;8.454;2022-11-15T08:11:17;99962.75;;;13.60;62.84
1652;BME280;823;49.028;8.454;2022-11-15T08:16:18;99967.44;;;13.69;62.43
1652;BME280;823;49.028;8.454;2022-11-15T08:21:20;99969.56;;;13.78;62.60
1652;BME280;823;49.028;8.454;2022-11-15T08:26:20;99961.13;;;13.91;62.47
1652;BME280;823;49.028;8.454;2022-11-15T08:31:20;99958.94;;;13.99;62.47
1652;BME280;823;49.028;8.454;2022-11-15T08:36:21;99953.09;;;14.11;62.40
1652;BME280;823;49.028;8.454;2022-11-15T08:41:33;99930.59;;;14.26;62.54
1652;BME280;823;49.028;8.454;2022-11-15T08:46:35;99946.16;;;14.42;62.15
1652;BME280;823;49.028;8.454;2022-11-15T08:51:36;99936.56;;;14.59;61.94
1652;BME280;823;49.028;8.454;2022-11-15T08:56:36;99933.88;;;14.76;61.53
1652;BME280;823;49.028;8.454;2022-11-15T09:01:36;99926.94;;;14.91;61.09
1652;BME280;823;49.028;8.454;2022-11-15T09:06:36;99922.78;;;15.03;60.44
1652;BME280;823;49.028;8.454;2022-11-15T09:11:37;99926.78;;;15.09;60.04
1652;BME280;823;49.028;8.454;2022-11-15T09:16:38;99916.00;;;15.15;59.67
1652;BME280;823;49.028;8.454;2022-11-15T09:21:38;99917.59;;;15.18;59.57
1652;BME280;823;49.028;8.454;2022-11-15T09:26:39;99924.09;;;15.25;59.66
1652;BME280;823;49.028;8.454;2022-11-15T09:31:39;99923.56;;;15.34;59.23
1652;BME280;823;49.028;8.454;2022-11-15T09:36:39;99917.16;;;15.40;59.51
1652;BME280;823;49.028;8.454;2022-11-15T09:42:20;99919.72;;;15.54;59.43
1652;BME280;823;49.028;8.454;2022-11-15T09:52:43;99912.47;;;15.59;59.19
1652;BME280;823;49.028;8.454;2022-11-15T10:03:02;99896.06;;;15.72;58.59
1652;BME280;823;49.028;8.454;2022-11-15T10:13:20;99907.03;;;15.77;58.80
1652;BME280;823;49.028;8.454;2022-11-15T10:18:41;99905.88;;;15.82;58.56
1652;BME280;823;49.028;8.454;2022-11-15T10:23:46;99913.31;;;15.74;58.44
1652;BME280;823;49.028;8.454;2022-11-15T10:28:46;99897.56;;;15.76;58.64
1652;BME280;823;49.028;8.454;2022-11-15T10:33:46;99893.00;;;15.79;58.27
1652;BME280;823;49.028;8.454;2022-11-15T10:49:26;99889.28;;;15.55;58.97
1652;BME280;823;49.028;8.454;2022-11-15T10:54:41;99868.72;;;15.50;59.25
1652;BME280;823;49.028;8.454;2022-11-15T10:59:45;99849.75;;;15.48;59.63
1652;BME280;823;49.028;8.454;2022-11-15T11:04:51;99843.69;;;15.47;60.30
1652;BME280;823;49.028;8.454;2022-11-15T11:10:05;99836.44;;;15.53;60.42
1652;BME280;823;49.028;8.454;2022-11-15T11:15:17;99826.56;;;15.58;60.65
1652;BME280;823;49.028;8.454;2022-11-15T11:20:37;99822.72;;;15.63;60.69
1652;BME280;823;49.028;8.454;2022-11-15T11:30:58;99795.03;;;15.90;60.07
1652;BME280;823;49.028;8.454;2022-11-15T11:36:15;99781.47;;;15.97;59.98
1652;BME280;823;49.028;8.454;2022-11-15T11:47:29;99763.75;;;16.03;60.09
1652;BME280;823;49.028;8.454;2022-11-15T12:03:39;99738.75;;;16.26;59.45
1652;BME280;823;49.028;8.454;2022-11-15T12:08:46;99738.53;;;16.29;59.40
1652;BME280;823;49.028;8.454;2022-11-15T12:13:55;99739.56;;;16.13;59.22
1652;BME280;823;49.028;8.454;2022-11-15T12:18:59;99735.38;;;16.24;59.15
1652;BME280;823;49.028;8.454;2022-11-15T12:24:04;99722.97;;;16.40;58.98
1652;BME280;823;49.028;8.454;2022-11-15T12:29:23;99723.59;;;16.57;59.02
1652;BME280;823;49.028;8.454;2022-11-15T12:34:42;99702.69;;;16.69;58.85
1652;BME280;823;49.028;8.454;2022-11-15T12:45:37;99699.22;;;16.82;58.80
1652;BME280;823;49.028;8.454;2022-11-15T13:01:07;99664.06;;;17.12;58.04
1652;BME280;823;49.028;8.454;2022-11-15T13:06:09;99661.53;;;17.23;57.67
1652;BME280;823;49.028;8.454;2022-11-15T13:11:45;99641.16;;;17.40;57.19
1652;BME280;823;49.028;8.454;2022-11-15T13:16:47;99630.59;;;17.41;56.96
1652;BME280;823;49.028;8.454;2022-11-15T13:21:49;99624.19;;;17.45;56.84
1652;BME280;823;49.028;8.454;2022-11-15T13:27:15;99608.53;;;17.57;56.44
1652;BME280;823;49.028;8.454;2022-11-15T13:32:18;99602.72;;;17.53;56.41
1652;BME280;823;49.028;8.454;2022-11-15T13:42:21;99598.81;;;17.59;56.26
1652;BME280;823;49.028;8.454;2022-11-15T13:47:25;99590.38;;;17.66;55.92
1652;BME280;823;49.028;8.454;2022-11-15T13:52:31;99579.91;;;17.66;55.92
1652;BME280;823;49.028;8.454;2022-11-15T14:02:51;99572.56;;;17.72;55.60
1652;BME280;823;49.028;8.454;2022-11-15T14:08:11;99545.09;;;17.77;55.49
1652;BME280;823;49.028;8.454;2022-11-15T14:13:30;99539.28;;;17.74;55.38
1652;BME280;823;49.028;8.454;2022-11-15T14:18:51;99516.56;;;17.74;55.64
1652;BME280;823;49.028;8.454;2022-11-15T14:23:51;99504.06;;;17.55;56.54
1652;BME280;823;49.028;8.454;2022-11-15T14:28:52;99494.66;;;17.52;56.57
1652;BME280;823;49.028;8.454;2022-11-15T14:33:52;99487.31;;;17.46;56.95
1652;BME280;823;49.028;8.454;2022-11-15T14:38:52;99493.09;;;17.39;57.10
1652;BME280;823;49.028;8.454;2022-11-15T14:43:54;99497.28;;;17.41;57.35
1652;BME280;823;49.028;8.454;2022-11-15T14:48:54;99491.69;;;17.46;56.99
1652;BME280;823;49.028;8.454;2022-11-15T14:53:54;99476.38;;;17.41;57.12
1652;BME280;823;49.028;8.454;2022-11-15T14:58:55;99466.16;;;17.38;57.24
1652;BME280;823;49.028;8.454;2022-11-15T15:03:55;99469.94;;;17.34;57.33
1652;BME280;823;49.028;8.454;2022-11-15T15:08:57;99456.63;;;17.26;56.76
1652;BME280;823;49.028;8.454;2022-11-15T15:13:57;99444.25;;;17.16;57.67
1652;BME280;823;49.028;8.454;2022-11-15T15:19:01;99439.00;;;17.05;57.48
1652;BME280;823;49.028;8.454;2022-11-15T15:24:01;99419.06;;;17.04;57.71
1652;BME280;823;49.028;8.454;2022-11-15T15:29:02;99416.91;;;16.98;57.85
1652;BME280;823;49.028;8.454;2022-11-15T15:34:02;99411.94;;;16.95;57.79
1652;BME280;823;49.028;8.454;2022-11-15T15:39:02;99411.75;;;16.85;58.22
1652;BME280;823;49.028;8.454;2022-11-15T15:44:03;99409.25;;;16.83;58.41
1652;BME280;823;49.028;8.454;2022-11-15T15:49:03;99406.16;;;16.78;58.16
1652;BME280;823;49.028;8.454;2022-11-15T15:54:03;99397.06;;;16.60;58.60
1652;BME280;823;49.028;8.454;2022-11-15T15:59:04;99394.13;;;16.64;58.26
1652;BME280;823;49.028;8.454;2022-11-15T16:04:04;99389.63;;;16.66;57.99
1652;BME280;823;49.028;8.454;2022-11-15T16:09:05;99375.63;;;16.67;57.85
1652;BME280;823;49.028;8.454;2022-11-15T16:14:05;99375.50;;;16.69;57.65
1652;BME280;823;49.028;8.454;2022-11-15T16:19:06;99360.31;;;16.63;57.69
1652;BME280;823;49.028;8.454;2022-11-15T16:24:06;99356.34;;;16.57;57.31
1652;BME280;823;49.028;8.454;2022-11-15T16:29:08;99351.25;;;16.56;56.80
1652;BME280;823;49.028;8.454;2022-11-15T16:34:09;99345.59;;;16.62;56.63
1652;BME280;823;49.028;8.454;2022-11-15T16:39:12;99333.97;;;16.66;56.58
1652;BME280;823;49.028;8.454;2022-11-15T16:44:18;99331.94;;;16.58;55.96
1652;BME280;823;49.028;8.454;2022-11-15T16:49:19;99333.84;;;16.67;55.85
1652;BME280;823;49.028;8.454;2022-11-15T16:54:20;99334.22;;;16.74;55.44
1652;BME280;823;49.028;8.454;2022-11-15T16:59:20;99328.19;;;16.85;55.24
1652;BME280;823;49.028;8.454;2022-11-15T17:04:21;99315.13;;;16.85;55.18
1652;BME280;823;49.028;8.454;2022-11-15T17:09:22;99309.78;;;16.87;55.06
1652;BME280;823;49.028;8.454;2022-11-15T17:14:23;99314.53;;;16.81;55.30
1652;BME280;823;49.028;8.454;2022-11-15T17:19:24;99309.06;;;16.73;55.04
1652;BME280;823;49.028;8.454;2022-11-15T17:24:24;99308.13;;;16.74;55.00
1652;BME280;823;49.028;8.454;2022-11-15T17:29:24;99300.72;;;16.68;55.33
1652;BME280;823;49.028;8.454;2022-11-15T17:34:25;99302.41;;;16.69;55.11
1652;BME280;823;49.028;8.454;2022-11-15T17:39:25;99304.19;;;16.68;55.15
1652;BME280;823;49.028;8.454;2022-11-15T17:44:25;99300.03;;;16.66;55.13
1652;BME280;823;49.028;8.454;2022-11-15T17:49:26;99297.75;;;16.61;55.33
1652;BME280;823;49.028;8.454;2022-11-15T17:54:26;99298.84;;;16.59;55.51
1652;BME280;823;49.028;8.454;2022-11-15T17:59:26;99295.63;;;16.55;55.51
1652;BME280;823;49.028;8.454;2022-11-15T18:04:27;99282.94;;;16.50;55.90
1652;BME280;823;49.028;8.454;2022-11-15T18:09:27;99288.00;;;16.41;56.39
1652;BME280;823;49.028;8.454;2022-11-15T18:14:28;99289.19;;;16.37;56.61
1652;BME280;823;49.028;8.454;2022-11-15T18:19:28;99290.44;;;16.31;56.92
1652;BME280;823;49.028;8.454;2022-11-15T18:24:33;99290.88;;;16.13;57.70
1652;BME280;823;49.028;8.454;2022-11-15T18:29:34;99295.25;;;16.13;56.93
1652;BME280;823;49.028;8.454;2022-11-15T18:34:36;99287.09;;;16.17;56.73
1652;BME280;823;49.028;8.454;2022-11-15T18:39:37;99285.09;;;16.21;56.46
1652;BME280;823;49.028;8.454;2022-11-15T18:44:37;99279.53;;;16.26;56.39
1652;BME280;823;49.028;8.454;2022-11-15T18:49:37;99282.84;;;16.28;56.13
1652;BME280;823;49.028;8.454;2022-11-15T18:54:38;99276.19;;;16.24;56.58
1652;BME280;823;49.028;8.454;2022-11-15T18:59:38;99267.94;;;16.30;56.50
1652;BME280;823;49.028;8.454;2022-11-15T19:04:38;99266.25;;;16.29;56.73
1652;BME280;823;49.028;8.454;2022-11-15T19:09:39;99252.41;;;16.28;56.82
1652;BME280;823;49.028;8.454;2022-11-15T19:14:39;99249.88;;;16.27;56.69
1652;BME280;823;49.028;8.454;2022-11-15T19:19:39;99255.72;;;16.30;57.23
1652;BME280;823;49.028;8.454;2022-11-15T19:24:40;99262.59;;;16.31;57.33
1652;BME280;823;49.028;8.454;2022-11-15T19:29:40;99271.38;;;16.30;57.40
1652;BME280;823;49.028;8.454;2022-11-15T19:34:40;99258.19;;;16.21;58.45
1652;BME280;823;49.028;8.454;2022-11-15T19:39:41;99252.03;;;16.22;58.49
1652;BME280;823;49.028;8.454;2022-11-15T19:44:41;99227.94;;;16.18;58.77
1652;BME280;823;49.028;8.454;2022-11-15T19:49:41;99235.88;;;16.16;58.84
1652;BME280;823;49.028;8.454;2022-11-15T19:54:42;99228.53;;;16.10;59.25
1652;BME280;823;49.028;8.454;2022-11-15T19:59:43;99219.47;;;16.03;59.45
1652;BME280;823;49.028;8.454;2022-11-15T20:04:43;99217.56;;;15.94;60.23
1652;BME280;823;49.028;8.454;2022-11-15T20:09:43;99210.53;;;15.83;61.12
1652;BME280;823;49.028;8.454;2022-11-15T20:14:43;99208.50;;;15.87;61.08
1652;BME280;823;49.028;8.454;2022-11-15T20:19:45;99212.31;;;15.82;61.35
1652;BME280;823;49.028;8.454;2022-11-15T20:24:45;99210.00;;;15.78;61.19
1652;BME280;823;49.028;8.454;2022-11-15T20:29:45;99212.00;;;15.74;61.28
1652;BME280;823;49.028;8.454;2022-11-15T20:34:47;99208.06;;;15.69;61.28
1652;BME280;823;49.028;8.454;2022-11-15T20:39:48;99204.97;;;15.63;61.08
1652;BME280;823;49.028;8.454;2022-11-15T20:44:48;99194.88;;;15.59;61.27
1652;BME280;823;49.028;8.454;2022-11-15T20:49:48;99195.84;;;15.58;61.36
1652;BME280;823;49.028;8.454;2022-11-15T20:54:49;99194.38;;;15.54;61.49
1652;BME280;823;49.028;8.454;2022-11-15T20:59:49;99189.38;;;15.50;61.82
1652;BME280;823;49.028;8.454;2022-11-15T21:04:50;99186.31;;;15.45;61.82
1652;BME280;823;49.028;8.454;2022-11-15T21:09:50;99183.81;;;15.44;62.11
1652;BME280;823;49.028;8.454;2022-11-15T21:15:09;99183.19;;;15.40;62.06
1652;BME280;823;49.028;8.454;2022-11-15T21:20:10;99179.88;;;15.38;62.04
1652;BME280;823;49.028;8.454;2022-11-15T21:25:10;99171.56;;;15.33;62.34
1652;BME280;823;49.028;8.454;2022-11-15T21:30:11;99172.72;;;15.29;62.34
1652;BME280;823;49.028;8.454;2022-11-15T21:35:11;99185.22;;;15.24;62.83
1652;BME280;823;49.028;8.454;2022-11-15T21:40:13;99176.72;;;15.22;62.80
1652;BME280;823;49.028;8.454;2022-11-15T21:45:13;99171.81;;;15.17;63.00
1652;BME280;823;49.028;8.454;2022-11-15T21:50:14;99158.91;;;15.15;63.29
1652;BME280;823;49.028;8.454;2022-11-15T21:55:14;99159.34;;;15.09;63.12
1652;BME280;823;49.028;8.454;2022-11-15T22:00:15;99162.16;;;15.06;63.48
1652;BME280;823;49.028;8.454;2022-11-15T22:05:34;99163.31;;;15.02;63.63
1652;BME280;823;49.028;8.454;2022-11-15T22:10:34;99157.84;;;14.94;63.74
1652;BME280;823;49.028;8.454;2022-11-15T22:15:34;99151.69;;;14.95;64.09
1652;BME280;823;49.028;8.454;2022-11-15T22:20:35;99151.69;;;14.95;64.03
1652;BME280;823;49.028;8.454;2022-11-15T22:25:35;99150.97;;;14.93;64.58
1652;BME280;823;49.028;8.454;2022-11-15T22:30:35;99144.84;;;14.94;64.39
1652;BME280;823;49.028;8.454;2022-11-15T22:35:37;99136.06;;;14.95;64.56
1652;BME280;823;49.028;8.454;2022-11-15T22:40:38;99144.84;;;14.94;64.69
1652;BME280;823;49.028;8.454;2022-11-15T22:45:46;99144.59;;;14.97;64.48
1652;BME280;823;49.028;8.454;2022-11-15T22:50:47;99141.28;;;14.95;64.69
1652;BME280;823;49.028;8.454;2022-11-15T22:55:52;99136.91;;;14.95;64.97
1652;BME280;823;49.028;8.454;2022-11-15T23:00:55;99136.06;;;14.95;64.93
1652;BME280;823;49.028;8.454;2022-11-15T23:06:06;99128.25;;;14.95;64.79
1652;BME280;823;49.028;8.454;2022-11-15T23:11:09;99131.31;;;14.89;65.18
1652;BME280;823;49.028;8.454;2022-11-15T23:16:28;99119.75;;;14.80;64.76
1652;BME280;823;49.028;8.454;2022-11-15T23:21:36;99112.28;;;14.75;65.43
1652;BME280;823;49.028;8.454;2022-11-15T23:26:58;99112.28;;;14.75;65.60
1652;BME280;823;49.028;8.454;2022-11-15T23:31:58;99111.56;;;14.60;65.50
1652;BME280;823;49.028;8.454;2022-11-15T23:37:17;99113.16;;;14.63;65.73
1652;BME280;823;49.028;8.454;2022-11-15T23:42:17;99114.69;;;14.66;65.69
1652;BME280;823;49.028;8.454;2022-11-15T23:47:20;99117.09;;;14.69;65.92
1652;BME280;823;49.028;8.454;2022-11-15T23:52:21;99116.03;;;14.71;65.67
1652;BME280;823;49.028;8.454;2022-11-15T23:57:22;99130.84;;;14.71;65.45
